El Paso, TX (88570)

2:07 PM MST on December 17, 2014 (GMT -0700)
Vista del Sol | Change Station
CLOSE
Current Station
Personal Weather Station
Location: El Paso, TX
Elevation: 4010 ft
Nearby Weather Stations

Elev 4010 ft 31.76 °N, 106.34 °W | Updated 4 minutes ago

Partly Cloudy
Partly Cloudy
59.3 °F
Feels Like 59.3 °F
N
9.0
Wind Variable Wind from WSW
Gusts 16.0 mph

Today
High -- | Low -- °F
--% Chance of Precip.
Yesterday
High -- | Low -- °F
Precip. -- in
6:59 AM 5:03 PM
Waning Crescent, 20% visible
Pressure 29.91 in
Visibility 10.0 miles
Clouds Scattered Clouds 6500 ft
Dew Point 34 °F
Humidity 39%
Rainfall 0.00 in
Snow Depth Not available.
UV 2 out of 12
Pollen 7.10 out of 12
Air Quality Not available.
Flu Activity Not available.
METAR KELP 172051Z 25023G29KT 10SM SCT065 16/M01 A3000 RMK AO2 PK WND 25038/2010 SLP128 T01561011 56022

More Conditions Fewer Conditions

Pressure 29.91 in
Visibility 10.0 miles
Clouds Scattered Clouds 6500 ft
Dew Point 34 °F
Humidity 39%
Rainfall 0.00 in
Snow Depth Not available.
UV 2 out of 12
Pollen 7.10 out of 12
Air Quality Not available.
Flu Activity Not available.
METAR KELP 172051Z 25023G29KT 10SM SCT065 16/M01 A3000 RMK AO2 PK WND 25038/2010 SLP128 T01561011 56022

More Conditions Fewer Conditions

Nowcast | as of 1:38 PM MST on December 17, 2014

At 1:30 PM isolated light rain showers were occurring across The Lowlands of the Borderland. Little to no accumulation is expected with these showers. Winds will be from the west between 10 and 20 miles per hour with gusts as high as 35 miles per hour. These conditions will continue through the evening hours.

×

10-Day Weather Forecast

Almanac

Astronomy

Dec. 17, 2014 Rise Set
Actual Time
Civil Twilight
Nautical Twilight
Astronomical Twilight
Moon
Length of Visible Light
Length of Day
Tomorrow will be .
, % of the Moon is Illuminated

Today's Extremes

State Highs State Lows

Community

WunderPhotos

Upload Photos

1,778,803 photos uploaded!

WunderBlogs® & News

Nearby

Air Quality

  Air Quality AQ Index Pollutant
Not available.

Snow Depth

Station Depth Elevation

Earthquake Activity

City Distance Mag. Time & Date
Minimum magnitude displayed is 2.5.

Coastal Water Temperatures

Place Temperature

Nearby Weather Stations